createdAt,value
2023-06-03T00:00:42.902Z,100235.84
2023-06-03T00:03:13.422Z,100244.47
2023-06-03T00:05:41.300Z,100246.47
2023-06-03T00:08:07.961Z,100257.16
2023-06-03T00:10:34.655Z,100250.72
2023-06-03T00:13:01.570Z,100253.41
2023-06-03T00:15:28.208Z,100265.09
2023-06-03T00:17:54.867Z,100265.09
2023-06-03T00:20:21.684Z,100269.94
2023-06-03T00:22:48.493Z,100267.38
2023-06-03T00:25:15.194Z,100270.94
2023-06-03T00:27:42.305Z,100273.66
2023-06-03T00:30:09.218Z,100276.34
2023-06-03T00:32:36.526Z,100277.69
2023-06-03T00:35:03.676Z,100272.50
2023-06-03T00:37:30.484Z,100269.44
2023-06-03T00:39:57.060Z,100273.03
2023-06-03T00:42:23.734Z,100279.50
2023-06-03T00:44:50.448Z,100275.44
2023-06-03T00:47:19.901Z,100278.84
2023-06-03T00:49:47.434Z,100283.91
2023-06-03T00:52:16.536Z,100286.78
2023-06-03T00:54:43.987Z,100282.56
2023-06-03T00:57:11.408Z,100280.03
2023-06-03T00:59:38.077Z,100279.88
2023-06-03T01:02:05.241Z,100288.00
2023-06-03T01:04:32.159Z,100275.78
2023-06-03T01:07:18.536Z,100279.53
2023-06-03T01:09:59.308Z,100274.25
2023-06-03T01:12:34.807Z,100275.63
2023-06-03T01:15:05.755Z,100277.28
2023-06-03T01:17:37.080Z,100273.16
2023-06-03T01:20:10.964Z,100271.13
2023-06-03T01:22:43.197Z,100277.81
2023-06-03T01:25:12.088Z,100281.03
2023-06-03T01:27:40.194Z,100285.91
2023-06-03T01:30:15.698Z,100288.41
2023-06-03T01:32:43.862Z,100279.72
2023-06-03T01:35:12.974Z,100294.63
2023-06-03T01:37:41.268Z,100290.72
2023-06-03T01:40:09.814Z,100282.00
2023-06-03T01:42:37.919Z,100290.50
2023-06-03T01:45:05.284Z,100294.72
2023-06-03T01:47:33.125Z,100290.44
2023-06-03T01:49:59.780Z,100289.69
2023-06-03T01:52:27.430Z,100301.97
2023-06-03T01:54:54.178Z,100299.56
2023-06-03T01:57:20.794Z,100304.44
2023-06-03T01:59:47.405Z,100313.25
2023-06-03T02:02:14.099Z,100316.50
2023-06-03T02:04:41.081Z,100309.22
2023-06-03T02:07:09.619Z,100318.28
2023-06-03T02:09:36.249Z,100316.50
2023-06-03T02:12:03.630Z,100320.81
2023-06-03T02:14:33.318Z,100315.50
2023-06-03T02:17:01.251Z,100317.13
2023-06-03T02:19:30.361Z,100316.09
2023-06-03T02:21:59.011Z,100322.56
2023-06-03T02:24:29.517Z,100329.97
2023-06-03T02:26:58.064Z,100326.13
2023-06-03T02:29:26.881Z,100328.16
2023-06-03T02:31:55.127Z,100331.47
2023-06-03T02:34:22.582Z,100339.16
2023-06-03T02:36:50.787Z,100338.88
2023-06-03T02:39:18.054Z,100341.78
2023-06-03T02:41:46.242Z,100340.00
2023-06-03T02:44:14.190Z,100343.03
2023-06-03T02:46:41.248Z,100345.19
2023-06-03T02:49:09.428Z,100346.56
2023-06-03T02:51:38.113Z,100350.41
2023-06-03T02:54:05.133Z,100343.16
2023-06-03T02:56:31.986Z,100362.91
2023-06-03T02:58:58.971Z,100360.94
2023-06-03T03:01:28.204Z,100362.25
2023-06-03T03:03:55.762Z,100366.34
2023-06-03T03:06:23.046Z,100371.19
2023-06-03T03:08:50.156Z,100380.09
2023-06-03T03:11:16.949Z,100381.25
2023-06-03T03:13:44.298Z,100381.25
2023-06-03T03:16:11.810Z,100393.06
2023-06-03T03:18:39.230Z,100394.19
2023-06-03T03:21:06.966Z,100397.31
2023-06-03T03:23:34.210Z,100406.00
2023-06-03T03:26:02.115Z,100403.72
2023-06-03T03:28:29.666Z,100394.63
2023-06-03T03:30:59.438Z,100401.00
2023-06-03T03:33:26.207Z,100402.25
2023-06-03T03:35:53.960Z,100403.81
2023-06-03T03:38:21.022Z,100403.53
2023-06-03T03:40:47.647Z,100415.44
2023-06-03T03:43:19.479Z,100409.47
2023-06-03T03:45:46.319Z,100417.69
2023-06-03T03:48:17.681Z,100418.69
2023-06-03T03:50:49.849Z,100427.78
2023-06-03T03:53:18.512Z,100436.44
2023-06-03T03:55:47.436Z,100431.16
2023-06-03T03:58:27.857Z,100438.91
2023-06-03T04:00:58.496Z,100442.56
2023-06-03T04:03:26.741Z,100435.88
2023-06-03T04:05:54.673Z,100435.44
2023-06-03T04:08:41.199Z,100439.81
2023-06-03T04:11:10.209Z,100446.19
2023-06-03T04:13:38.828Z,100454.25
2023-06-03T04:16:13.504Z,100453.34
2023-06-03T04:18:43.438Z,100448.59
2023-06-03T04:21:14.180Z,100443.59
2023-06-03T04:23:41.121Z,100455.09
2023-06-03T04:26:10.501Z,100453.06
2023-06-03T04:28:40.389Z,100453.72
2023-06-03T04:31:07.527Z,100456.81
2023-06-03T04:33:34.788Z,100446.31
2023-06-03T04:36:01.484Z,100452.22
2023-06-03T04:38:29.493Z,100451.66
2023-06-03T04:40:56.328Z,100447.00
2023-06-03T04:43:23.514Z,100446.78
2023-06-03T04:45:50.785Z,100448.53
2023-06-03T04:48:17.628Z,100453.31
2023-06-03T04:50:45.555Z,100456.56
2023-06-03T04:53:13.147Z,100452.19
2023-06-03T04:55:45.235Z,100466.50
2023-06-03T04:58:12.507Z,100467.22
2023-06-03T05:00:42.233Z,100460.53
2023-06-03T05:03:10.597Z,100464.97
2023-06-03T05:05:45.157Z,100467.22
2023-06-03T05:08:12.123Z,100461.19
2023-06-03T05:10:39.242Z,100469.38
2023-06-03T05:13:09.715Z,100471.75
2023-06-03T05:15:36.897Z,100473.47
2023-06-03T05:18:03.934Z,100478.75
2023-06-03T05:20:32.445Z,100470.31
2023-06-03T05:22:59.320Z,100468.63
2023-06-03T05:25:25.955Z,100474.78
2023-06-03T05:28:03.244Z,100480.03
2023-06-03T05:30:31.487Z,100479.00
2023-06-03T05:32:58.436Z,100477.34
2023-06-03T05:35:25.336Z,100478.03
2023-06-03T05:37:51.967Z,100480.22
2023-06-03T05:40:18.618Z,100480.75
2023-06-03T05:42:48.565Z,100481.25
2023-06-03T05:45:16.423Z,100482.44
2023-06-03T05:47:43.152Z,100484.16
2023-06-03T05:50:10.351Z,100483.50
2023-06-03T05:52:36.946Z,100484.84
2023-06-03T05:55:03.718Z,100493.13
2023-06-03T05:57:30.488Z,100493.81
2023-06-03T05:59:57.078Z,100499.03
2023-06-03T06:02:23.764Z,100494.78
2023-06-03T06:04:50.483Z,100497.66
2023-06-03T06:07:17.164Z,100496.78
2023-06-03T06:09:43.916Z,100492.38
2023-06-03T06:12:10.894Z,100492.50
2023-06-03T06:14:38.786Z,100496.41
2023-06-03T06:17:05.438Z,100498.44
2023-06-03T06:19:32.244Z,100500.63
2023-06-03T06:21:59.748Z,100502.28
2023-06-03T06:24:26.435Z,100496.47
2023-06-03T06:26:53.111Z,100504.63
2023-06-03T06:29:20.128Z,100506.66
2023-06-03T06:31:46.757Z,100505.03
2023-06-03T06:34:18.415Z,100508.94
2023-06-03T06:36:50.919Z,100519.09
2023-06-03T06:39:46.230Z,100524.44
2023-06-03T06:42:33.413Z,100514.81
2023-06-03T06:45:15.968Z,100523.88
2023-06-03T06:47:42.847Z,100528.50
2023-06-03T06:50:29.714Z,100522.88
2023-06-03T06:52:56.755Z,100521.47
2023-06-03T06:55:56.580Z,100522.88
2023-06-03T06:58:26.243Z,100525.31
2023-06-03T07:00:53.175Z,100517.38
2023-06-03T07:03:20.988Z,100525.94
2023-06-03T07:05:53.319Z,100528.75
2023-06-03T07:08:21.900Z,100524.16
2023-06-03T07:10:48.709Z,100521.91
2023-06-03T07:13:18.584Z,100521.84
2023-06-03T07:15:45.860Z,100529.53
2023-06-03T07:18:13.100Z,100533.78
2023-06-03T07:20:47.937Z,100544.00
2023-06-03T07:23:21.160Z,100539.97
2023-06-03T07:25:50.667Z,100539.66
2023-06-03T07:28:19.546Z,100542.91
2023-06-03T07:30:48.895Z,100539.69
2023-06-03T07:34:09.387Z,100546.44
2023-06-03T07:36:36.051Z,100548.09
2023-06-03T07:39:05.339Z,100552.69
2023-06-03T07:41:45.701Z,100548.31
2023-06-03T07:44:14.326Z,100555.94
2023-06-03T07:46:55.808Z,100552.28
2023-06-03T07:49:22.999Z,100552.50
2023-06-03T07:51:51.601Z,100537.28
2023-06-03T07:54:19.302Z,100543.31
2023-06-03T07:56:47.401Z,100550.69
2023-06-03T07:59:16.254Z,100557.44
2023-06-03T08:01:44.227Z,100546.63
2023-06-03T08:04:23.065Z,100559.16
2023-06-03T08:06:54.068Z,100557.19
2023-06-03T08:09:28.497Z,100564.19
2023-06-03T08:11:55.680Z,100557.34
2023-06-03T08:14:23.617Z,100557.34
2023-06-03T08:16:51.056Z,100563.28
2023-06-03T08:19:18.854Z,100564.16
2023-06-03T08:21:45.993Z,100567.78
2023-06-03T08:24:14.069Z,100573.31
2023-06-03T08:26:49.533Z,100572.91
2023-06-03T08:29:16.291Z,100568.13
2023-06-03T08:31:43.072Z,100566.19
2023-06-03T08:34:09.795Z,100562.66
2023-06-03T08:36:38.523Z,100568.03
2023-06-03T08:39:08.193Z,100565.22
2023-06-03T08:41:39.498Z,100563.97
2023-06-03T08:44:44.726Z,100573.91
2023-06-03T08:47:18.160Z,100580.38
2023-06-03T08:50:07.709Z,100570.28
2023-06-03T08:52:39.542Z,100578.25
2023-06-03T08:55:07.535Z,100579.06
2023-06-03T08:57:50.800Z,100589.25
2023-06-03T09:00:24.887Z,100583.91
2023-06-03T09:02:54.553Z,100581.50
2023-06-03T09:05:21.625Z,100568.50
2023-06-03T09:07:49.843Z,100574.84
2023-06-03T09:10:18.626Z,100577.28
2023-06-03T09:12:47.292Z,100573.13
2023-06-03T09:15:15.358Z,100583.81
2023-06-03T09:17:45.524Z,100574.56
2023-06-03T09:20:13.386Z,100572.41
2023-06-03T09:22:42.796Z,100585.50
2023-06-03T09:25:09.805Z,100583.13
2023-06-03T09:27:36.772Z,100591.44
2023-06-03T09:30:04.721Z,100591.03
2023-06-03T09:32:32.505Z,100589.38
2023-06-03T09:34:59.424Z,100584.25
2023-06-03T09:37:30.288Z,100580.03
2023-06-03T09:40:00.185Z,100582.09
2023-06-03T09:42:43.406Z,100584.84
2023-06-03T09:45:33.760Z,100574.16
2023-06-03T09:48:02.192Z,100569.97
2023-06-03T09:50:31.733Z,100570.91
2023-06-03T09:52:59.564Z,100572.59
2023-06-03T09:55:36.302Z,100561.78
2023-06-03T09:58:03.611Z,100573.06
2023-06-03T10:00:32.401Z,100563.81
2023-06-03T10:03:08.269Z,100566.84
2023-06-03T10:05:35.986Z,100569.84
2023-06-03T10:08:05.220Z,100571.16
2023-06-03T10:10:32.857Z,100568.50
2023-06-03T10:13:17.728Z,100573.81
2023-06-03T10:15:44.445Z,100569.38
2023-06-03T10:18:11.575Z,100567.44
2023-06-03T10:20:40.204Z,100563.06
2023-06-03T10:23:08.822Z,100563.50
2023-06-03T10:25:43.425Z,100565.75
2023-06-03T10:28:14.494Z,100571.72
2023-06-03T10:30:42.302Z,100563.75
2023-06-03T10:33:10.365Z,100569.00
2023-06-03T10:35:38.467Z,100562.50
2023-06-03T10:38:07.433Z,100574.59
2023-06-03T10:40:35.457Z,100570.53
2023-06-03T10:43:03.604Z,100574.56
2023-06-03T10:45:31.330Z,100568.16
2023-06-03T10:48:01.951Z,100568.81
2023-06-03T10:50:52.616Z,100559.63
2023-06-03T10:53:33.956Z,100558.25
2023-06-03T10:56:06.665Z,100558.53
2023-06-03T10:58:33.606Z,100552.72
2023-06-03T11:01:06.592Z,100554.53
2023-06-03T11:04:04.182Z,100552.59
2023-06-03T11:06:30.863Z,100549.25
2023-06-03T11:09:06.693Z,100560.84
2023-06-03T11:11:42.696Z,100560.66
2023-06-03T11:14:10.847Z,100566.66
2023-06-03T11:16:59.151Z,100555.81
2023-06-03T11:19:39.391Z,100554.69
2023-06-03T11:22:08.976Z,100552.75
2023-06-03T11:24:38.739Z,100556.41
2023-06-03T11:27:11.402Z,100553.44
2023-06-03T11:29:47.171Z,100550.06
2023-06-03T11:32:27.065Z,100551.66
2023-06-03T11:35:06.145Z,100551.19
2023-06-03T11:37:42.532Z,100541.22
2023-06-03T11:40:11.327Z,100548.22
2023-06-03T11:42:52.914Z,100543.34
2023-06-03T11:45:31.226Z,100547.31
2023-06-03T11:48:07.161Z,100529.19
2023-06-03T11:50:55.202Z,100525.91
2023-06-03T11:53:35.067Z,100530.28
2023-06-03T11:56:10.845Z,100530.19
2023-06-03T11:58:41.491Z,100540.00
2023-06-03T12:01:19.137Z,100529.38
2023-06-03T12:03:59.197Z,100524.75
2023-06-03T12:06:25.960Z,100517.38
2023-06-03T12:08:52.866Z,100520.69
2023-06-03T12:11:33.258Z,100525.25
2023-06-03T12:14:02.008Z,100523.53
2023-06-03T12:16:34.683Z,100519.69
2023-06-03T12:19:04.462Z,100521.09
2023-06-03T12:21:32.669Z,100522.09
2023-06-03T12:23:59.500Z,100521.97
2023-06-03T12:26:26.824Z,100521.16
2023-06-03T12:29:06.070Z,100514.88
2023-06-03T12:31:32.883Z,100524.81
2023-06-03T12:33:59.622Z,100514.91
2023-06-03T12:36:45.482Z,100514.59
2023-06-03T12:39:12.063Z,100504.69
2023-06-03T12:41:38.689Z,100513.59
2023-06-03T12:44:05.805Z,100500.53
2023-06-03T12:46:32.530Z,100504.84
2023-06-03T12:49:15.542Z,100499.88
2023-06-03T12:51:42.428Z,100505.78
2023-06-03T12:54:09.122Z,100492.13
2023-06-03T12:56:35.829Z,100505.84
2023-06-03T12:59:04.713Z,100495.53
2023-06-03T13:01:31.751Z,100491.19
2023-06-03T13:03:58.477Z,100487.53
2023-06-03T13:06:26.946Z,100491.38
2023-06-03T13:08:53.850Z,100483.53
2023-06-03T13:11:21.154Z,100487.25
2023-06-03T13:13:48.093Z,100481.13
2023-06-03T13:16:15.000Z,100475.56
2023-06-03T13:18:41.809Z,100476.69
2023-06-03T13:21:08.530Z,100476.91
2023-06-03T13:23:35.419Z,100478.22
2023-06-03T13:26:02.421Z,100481.94
2023-06-03T13:28:29.176Z,100480.94
2023-06-03T13:30:56.564Z,100485.22
2023-06-03T13:33:23.190Z,100480.16
2023-06-03T13:35:49.838Z,100480.13
2023-06-03T13:38:16.666Z,100478.75
2023-06-03T13:40:43.310Z,100475.00
2023-06-03T13:43:09.927Z,100468.13
2023-06-03T13:45:37.849Z,100475.03
2023-06-03T13:48:04.790Z,100472.41
2023-06-03T13:50:31.494Z,100474.31
2023-06-03T13:52:58.313Z,100467.81
2023-06-03T13:55:24.947Z,100459.16
2023-06-03T13:57:51.541Z,100471.66
2023-06-03T14:00:18.319Z,100476.69
2023-06-03T14:02:44.931Z,100473.84
2023-06-03T14:05:11.691Z,100471.66
2023-06-03T14:07:38.391Z,100472.53
2023-06-03T14:10:06.694Z,100467.34
2023-06-03T14:12:34.792Z,100465.78
2023-06-03T14:15:01.458Z,100464.22
2023-06-03T14:17:28.222Z,100457.00
2023-06-03T14:19:54.967Z,100447.59
2023-06-03T14:22:23.542Z,100451.28
2023-06-03T14:24:51.801Z,100455.53
2023-06-03T14:27:19.893Z,100452.09
2023-06-03T14:29:46.563Z,100444.41
2023-06-03T14:32:13.298Z,100443.72
2023-06-03T14:34:39.940Z,100452.19
2023-06-03T14:37:06.876Z,100445.50
2023-06-03T14:39:33.595Z,100442.00
2023-06-03T14:42:00.362Z,100435.19
2023-06-03T14:44:27.040Z,100436.13
2023-06-03T14:46:53.674Z,100432.16
2023-06-03T14:49:24.736Z,100428.00
2023-06-03T14:51:51.887Z,100431.88
2023-06-03T14:54:18.850Z,100430.56
2023-06-03T14:56:45.585Z,100437.81
2023-06-03T14:59:12.247Z,100431.28
2023-06-03T15:01:40.997Z,100416.34
2023-06-03T15:04:08.348Z,100424.06
2023-06-03T15:06:34.990Z,100422.81
2023-06-03T15:09:01.600Z,100423.66
2023-06-03T15:11:28.417Z,100423.09
2023-06-03T15:13:55.124Z,100423.56
2023-06-03T15:16:21.751Z,100424.34
2023-06-03T15:18:48.621Z,100419.91
2023-06-03T15:21:15.593Z,100427.31
2023-06-03T15:23:42.388Z,100419.91
2023-06-03T15:26:09.303Z,100420.31
2023-06-03T15:28:36.311Z,100420.56
2023-06-03T15:31:03.124Z,100412.81
2023-06-03T15:33:29.729Z,100412.94
2023-06-03T15:35:56.436Z,100419.00
2023-06-03T15:38:23.143Z,100413.09
2023-06-03T15:40:49.769Z,100417.59
2023-06-03T15:43:18.069Z,100413.91
2023-06-03T15:45:44.737Z,100411.66
2023-06-03T15:48:11.503Z,100411.66
2023-06-03T15:50:38.157Z,100410.59
2023-06-03T15:53:04.942Z,100412.91
2023-06-03T15:55:31.606Z,100410.00
2023-06-03T15:57:58.367Z,100416.47
2023-06-03T16:00:25.143Z,100411.47
2023-06-03T16:02:51.837Z,100411.22
2023-06-03T16:05:18.731Z,100421.41
2023-06-03T16:07:45.428Z,100414.44
2023-06-03T16:10:13.285Z,100421.06
2023-06-03T16:12:40.000Z,100420.09
2023-06-03T16:15:07.611Z,100418.72
2023-06-03T16:17:34.613Z,100425.78
2023-06-03T16:20:01.421Z,100425.28
2023-06-03T16:22:28.246Z,100417.72
2023-06-03T16:24:54.962Z,100427.75
2023-06-03T16:27:21.639Z,100422.84
2023-06-03T16:29:48.671Z,100430.22
2023-06-03T16:32:15.534Z,100432.13
2023-06-03T16:34:42.150Z,100427.06
2023-06-03T16:37:08.870Z,100426.84
2023-06-03T16:39:35.570Z,100427.22
2023-06-03T16:42:02.205Z,100436.63
2023-06-03T16:44:28.775Z,100440.06
2023-06-03T16:46:55.422Z,100445.31
2023-06-03T16:49:22.930Z,100437.63
2023-06-03T16:51:50.565Z,100432.19
2023-06-03T16:54:17.482Z,100429.19
2023-06-03T16:56:44.176Z,100444.69
2023-06-03T16:59:11.865Z,100446.34
2023-06-03T17:01:38.489Z,100447.88
2023-06-03T17:04:05.269Z,100447.19
2023-06-03T17:06:31.864Z,100453.53
2023-06-03T17:08:58.504Z,100454.34
2023-06-03T17:11:26.507Z,100444.78
2023-06-03T17:13:53.169Z,100448.34
2023-06-03T17:16:19.864Z,100448.25
2023-06-03T17:18:46.558Z,100460.94
2023-06-03T17:21:13.255Z,100453.38
2023-06-03T17:23:39.891Z,100459.56
2023-06-03T17:26:06.785Z,100450.72
2023-06-03T17:28:33.553Z,100460.03
2023-06-03T17:31:00.208Z,100467.31
2023-06-03T17:33:26.938Z,100477.72
2023-06-03T17:35:53.637Z,100485.34
2023-06-03T17:38:20.473Z,100484.38
2023-06-03T17:40:47.082Z,100484.75
2023-06-03T17:43:13.786Z,100487.16
2023-06-03T17:45:40.497Z,100486.19
2023-06-03T17:48:07.113Z,100488.34
2023-06-03T17:50:33.842Z,100486.03
2023-06-03T17:53:00.466Z,100485.00
2023-06-03T17:55:27.106Z,100497.06
2023-06-03T17:57:54.824Z,100500.44
2023-06-03T18:00:22.945Z,100497.03
2023-06-03T18:02:51.791Z,100498.03
2023-06-03T18:05:18.893Z,100504.34
2023-06-03T18:07:45.506Z,100510.84
2023-06-03T18:10:12.401Z,100504.88
2023-06-03T18:12:39.019Z,100512.97
2023-06-03T18:15:06.145Z,100501.50
2023-06-03T18:17:32.767Z,100513.03
2023-06-03T18:19:59.669Z,100516.72
2023-06-03T18:22:26.478Z,100524.59
2023-06-03T18:24:53.240Z,100535.16
2023-06-03T18:27:19.966Z,100539.06
2023-06-03T18:29:46.587Z,100539.56
2023-06-03T18:32:13.643Z,100545.22
2023-06-03T18:34:44.051Z,100537.34
2023-06-03T18:37:13.889Z,100546.34
2023-06-03T18:39:40.706Z,100542.34
2023-06-03T18:42:08.001Z,100558.84
2023-06-03T18:44:35.054Z,100549.34
2023-06-03T18:47:01.778Z,100558.50
2023-06-03T18:49:28.409Z,100559.38
2023-06-03T18:51:55.177Z,100562.31
2023-06-03T18:54:21.997Z,100562.47
2023-06-03T18:56:48.784Z,100563.50
2023-06-03T18:59:18.214Z,100560.75
2023-06-03T19:01:48.766Z,100568.34
2023-06-03T19:04:16.453Z,100568.44
2023-06-03T19:06:44.422Z,100577.41
2023-06-03T19:09:13.075Z,100569.78
2023-06-03T19:11:40.380Z,100577.91
2023-06-03T19:14:13.446Z,100578.66
2023-06-03T19:16:45.018Z,100575.84
2023-06-03T19:19:12.917Z,100574.41
2023-06-03T19:21:39.702Z,100580.38
2023-06-03T19:24:07.486Z,100580.78
2023-06-03T19:26:34.426Z,100580.81
2023-06-03T19:29:01.726Z,100577.25
2023-06-03T19:31:30.988Z,100585.44
2023-06-03T19:33:59.004Z,100589.72
2023-06-03T19:36:27.484Z,100600.44
2023-06-03T19:38:54.558Z,100604.31
2023-06-03T19:41:21.558Z,100603.25
2023-06-03T19:43:48.190Z,100605.06
2023-06-03T19:46:14.839Z,100613.13
2023-06-03T19:48:41.914Z,100610.56
2023-06-03T19:51:08.571Z,100609.44
2023-06-03T19:53:35.569Z,100615.81
2023-06-03T19:56:02.323Z,100613.72
2023-06-03T19:58:28.996Z,100615.44
2023-06-03T20:00:55.733Z,100622.00
2023-06-03T20:03:22.745Z,100621.66
2023-06-03T20:05:49.388Z,100623.81
2023-06-03T20:08:17.422Z,100631.28
2023-06-03T20:10:44.070Z,100627.25
2023-06-03T20:13:18.113Z,100633.03
2023-06-03T20:15:52.537Z,100631.34
2023-06-03T20:18:19.317Z,100632.03
2023-06-03T20:20:45.889Z,100638.34
2023-06-03T20:23:12.448Z,100638.16
2023-06-03T20:25:39.144Z,100640.16
2023-06-03T20:28:05.894Z,100644.41
2023-06-03T20:30:32.576Z,100642.91
2023-06-03T20:33:01.212Z,100647.19
2023-06-03T20:35:29.259Z,100642.22
2023-06-03T20:37:56.178Z,100651.69
2023-06-03T20:40:25.747Z,100648.28
2023-06-03T20:42:52.472Z,100648.75
2023-06-03T20:45:19.202Z,100653.84
2023-06-03T20:47:46.464Z,100656.28
2023-06-03T20:50:13.599Z,100658.00
2023-06-03T20:52:40.570Z,100659.28
2023-06-03T20:55:08.022Z,100663.13
2023-06-03T20:57:34.717Z,100673.38
2023-06-03T21:00:01.316Z,100672.50
2023-06-03T21:02:28.061Z,100670.50
2023-06-03T21:04:54.843Z,100669.69
2023-06-03T21:07:21.595Z,100678.03
2023-06-03T21:09:48.310Z,100679.88
2023-06-03T21:12:15.017Z,100689.09
2023-06-03T21:14:41.638Z,100677.34
2023-06-03T21:17:08.410Z,100686.16
2023-06-03T21:19:35.107Z,100691.53
2023-06-03T21:22:01.794Z,100690.81
2023-06-03T21:24:28.421Z,100686.38
2023-06-03T21:26:55.007Z,100693.28
2023-06-03T21:29:21.615Z,100689.63
2023-06-03T21:31:48.314Z,100689.97
2023-06-03T21:34:14.935Z,100682.28
2023-06-03T21:36:41.616Z,100684.38
2023-06-03T21:39:08.437Z,100686.50
2023-06-03T21:41:35.089Z,100688.78
2023-06-03T21:44:01.738Z,100684.72
2023-06-03T21:46:28.595Z,100681.75
2023-06-03T21:48:55.357Z,100682.00
2023-06-03T21:51:22.089Z,100688.38
2023-06-03T21:53:49.015Z,100688.91
2023-06-03T21:56:15.635Z,100693.59
2023-06-03T21:58:42.277Z,100690.97
2023-06-03T22:01:09.908Z,100697.72
2023-06-03T22:03:36.900Z,100692.41
2023-06-03T22:06:04.149Z,100687.47
2023-06-03T22:08:30.836Z,100692.69
2023-06-03T22:10:57.501Z,100690.97
2023-06-03T22:13:24.079Z,100689.06
2023-06-03T22:15:50.723Z,100683.22
2023-06-03T22:18:17.372Z,100679.06
2023-06-03T22:20:44.077Z,100679.59
2023-06-03T22:23:10.627Z,100685.50
2023-06-03T22:25:37.344Z,100678.69
2023-06-03T22:28:05.333Z,100683.25
2023-06-03T22:30:31.974Z,100671.25
2023-06-03T22:32:58.668Z,100681.56
2023-06-03T22:35:25.903Z,100680.97
2023-06-03T22:37:52.527Z,100679.78
2023-06-03T22:40:19.292Z,100670.84
2023-06-03T22:42:45.879Z,100675.88
2023-06-03T22:45:13.667Z,100675.03
2023-06-03T22:47:40.617Z,100671.09
2023-06-03T22:50:07.922Z,100671.72
2023-06-03T22:52:34.538Z,100664.88
2023-06-03T22:55:01.220Z,100661.72
2023-06-03T22:57:27.840Z,100659.41
2023-06-03T22:59:54.443Z,100658.94
2023-06-03T23:02:21.130Z,100666.50
2023-06-03T23:04:47.748Z,100667.38
2023-06-03T23:07:14.340Z,100663.94
2023-06-03T23:09:41.089Z,100660.66
2023-06-03T23:12:09.321Z,100666.16
2023-06-03T23:14:36.331Z,100659.53
2023-06-03T23:17:04.661Z,100663.22
2023-06-03T23:19:33.697Z,100666.78
2023-06-03T23:22:00.274Z,100656.88
2023-06-03T23:24:26.957Z,100658.34
2023-06-03T23:26:53.533Z,100659.56
2023-06-03T23:29:20.142Z,100653.59
2023-06-03T23:31:46.947Z,100655.91
2023-06-03T23:34:13.716Z,100650.19
2023-06-03T23:36:40.317Z,100656.16
2023-06-03T23:39:06.931Z,100652.38
2023-06-03T23:41:33.544Z,100658.84
2023-06-03T23:44:03.312Z,100655.44
2023-06-03T23:46:30.499Z,100649.19
2023-06-03T23:48:57.225Z,100647.97
2023-06-03T23:51:23.882Z,100654.19
2023-06-03T23:53:50.752Z,100645.66
2023-06-03T23:56:17.497Z,100645.91
2023-06-03T23:58:44.195Z,100647.84
